createdAt,value
2023-02-11T06:45:13.657Z,97.23
2023-02-11T06:50:15.627Z,96.93
2023-02-11T06:55:17.334Z,97.18
2023-02-11T07:00:19.248Z,97.41
2023-02-11T07:05:21.747Z,96.38
2023-02-11T07:10:23.462Z,94.93
2023-02-11T07:15:25.366Z,94.22
2023-02-11T07:20:27.139Z,93.64
2023-02-11T07:25:28.797Z,92.90
2023-02-11T07:30:30.699Z,93.02
2023-02-11T07:35:32.403Z,93.08
2023-02-11T07:40:34.115Z,92.87
2023-02-11T07:45:39.097Z,92.61
2023-02-11T07:50:40.748Z,91.12
2023-02-11T07:55:45.437Z,90.21
2023-02-11T08:00:47.142Z,90.17
2023-02-11T08:05:48.934Z,89.99
2023-02-11T08:10:51.284Z,89.38
2023-02-11T08:15:53.211Z,89.22
2023-02-11T08:20:54.892Z,88.91
2023-02-11T08:25:56.543Z,87.71
2023-02-11T08:30:58.209Z,86.83
2023-02-11T08:36:00.168Z,86.19
2023-02-11T08:41:01.937Z,85.79
2023-02-11T08:46:04.007Z,85.95
2023-02-11T08:51:11.768Z,85.67
2023-02-11T08:56:16.710Z,84.40
2023-02-11T09:01:23.003Z,84.33
2023-02-11T09:06:26.365Z,83.57
2023-02-11T09:11:35.774Z,83.27
2023-02-11T09:16:39.856Z,82.59
2023-02-11T09:21:43.150Z,81.96
2023-02-11T09:26:44.929Z,81.28
2023-02-11T09:31:47.916Z,81.15
2023-02-11T09:36:49.743Z,81.32
2023-02-11T09:42:18.981Z,80.69
2023-02-11T09:47:34.580Z,80.23
2023-02-11T09:53:02.215Z,80.45
2023-02-11T09:58:11.085Z,79.96
2023-02-11T10:03:21.501Z,80.18
2023-02-11T10:08:48.596Z,80.48
2023-02-11T10:14:12.134Z,80.12
2023-02-11T10:19:29.242Z,80.55
2023-02-11T10:24:32.613Z,80.51
2023-02-11T10:29:48.390Z,80.10
2023-02-11T10:34:54.484Z,79.98
2023-02-11T10:39:57.659Z,79.34
2023-02-11T10:45:10.051Z,79.19
2023-02-11T10:50:22.202Z,79.25
2023-02-11T10:55:28.968Z,79.14
2023-02-11T11:00:41.339Z,79.25
2023-02-11T11:05:57.324Z,78.77
2023-02-11T11:11:13.392Z,79.17
2023-02-11T11:16:16.209Z,79.08
2023-02-11T11:21:31.727Z,79.13
2023-02-11T11:26:47.050Z,79.05
2023-02-11T11:32:04.679Z,79.22
2023-02-11T11:37:31.398Z,78.96
2023-02-11T11:42:37.104Z,79.07
2023-02-11T11:47:46.801Z,79.40
2023-02-11T11:53:01.512Z,79.14
2023-02-11T11:58:04.973Z,79.22
2023-02-11T12:03:25.536Z,79.23
2023-02-11T12:08:49.126Z,79.38
2023-02-11T12:14:12.563Z,78.90
2023-02-11T12:19:17.135Z,78.67
2023-02-11T12:24:42.093Z,78.72
2023-02-11T12:30:02.541Z,78.67
2023-02-11T12:35:07.485Z,78.43
2023-02-11T12:40:15.434Z,78.06
2023-02-11T12:45:32.672Z,77.80
2023-02-11T12:51:04.901Z,78.10
2023-02-11T12:56:24.142Z,78.27
2023-02-11T13:01:39.719Z,77.86
2023-02-11T13:06:54.627Z,78.07
2023-02-11T13:12:20.650Z,78.41
2023-02-11T13:17:30.872Z,78.39
2023-02-11T13:22:43.449Z,78.09
2023-02-11T13:27:58.746Z,78.58
2023-02-11T13:33:01.100Z,78.48
2023-02-11T13:38:21.948Z,79.31
2023-02-11T13:43:28.911Z,78.67
2023-02-11T13:48:49.491Z,79.12
2023-02-11T13:53:57.698Z,79.26
2023-02-11T13:59:02.342Z,78.96
2023-02-11T14:04:39.343Z,78.66
2023-02-11T14:09:41.408Z,79.17
2023-02-11T14:15:04.314Z,79.36
2023-02-11T14:20:44.164Z,79.28
2023-02-11T14:26:01.532Z,79.69
2023-02-11T14:31:25.444Z,79.57
2023-02-11T14:36:48.686Z,79.89
2023-02-11T14:41:53.453Z,80.46
2023-02-11T14:46:56.426Z,80.84
2023-02-11T14:52:20.391Z,80.53
2023-02-11T14:58:12.702Z,80.16
2023-02-11T15:03:37.786Z,79.77
2023-02-11T15:08:45.913Z,80.39
2023-02-11T15:13:49.948Z,80.70
2023-02-11T15:18:58.164Z,80.63
2023-02-11T15:24:01.575Z,80.34
2023-02-11T15:29:03.486Z,80.26
2023-02-11T15:34:09.355Z,80.24
2023-02-11T15:39:30.469Z,80.59
2023-02-11T15:44:33.315Z,81.24
2023-02-11T15:49:35.306Z,80.78
2023-02-11T15:54:37.779Z,80.77
2023-02-11T15:59:45.840Z,80.60
2023-02-11T16:05:28.148Z,81.11
2023-02-11T16:10:35.617Z,81.59
2023-02-11T16:15:46.713Z,81.89
2023-02-11T16:20:49.640Z,81.98
2023-02-11T16:26:01.510Z,82.32
2023-02-11T16:31:05.100Z,82.54
2023-02-11T16:36:13.762Z,82.63
2023-02-11T16:41:15.509Z,85.36
2023-02-11T16:46:17.392Z,85.56
2023-02-11T16:51:19.072Z,85.34
2023-02-11T16:56:20.684Z,84.54
2023-02-11T17:01:22.338Z,84.13
2023-02-11T17:06:24.200Z,84.24
2023-02-11T17:11:26.557Z,84.77
2023-02-11T17:16:29.938Z,85.50
2023-02-11T17:21:32.087Z,85.71
2023-02-11T17:26:36.130Z,85.97
2023-02-11T17:31:39.290Z,86.26
2023-02-11T17:36:41.501Z,86.41
2023-02-11T17:41:43.069Z,86.84
2023-02-11T17:46:44.809Z,86.66
2023-02-11T17:51:46.807Z,86.80
2023-02-11T17:56:50.768Z,86.83
2023-02-11T18:01:52.660Z,86.63
2023-02-11T18:06:54.341Z,87.04
2023-02-11T18:11:56.200Z,87.10
2023-02-11T18:16:58.229Z,86.82
2023-02-11T18:22:01.073Z,86.74
2023-02-11T18:27:02.892Z,87.13
2023-02-11T18:32:04.805Z,87.70
2023-02-11T18:37:06.599Z,88.70
2023-02-11T18:42:09.213Z,89.38
2023-02-11T18:47:10.828Z,89.33
2023-02-11T18:52:12.470Z,89.02
2023-02-11T18:57:14.055Z,88.96
2023-02-11T19:02:15.668Z,89.55
2023-02-11T19:07:18.315Z,90.13
2023-02-11T19:12:20.051Z,89.97
2023-02-11T19:17:22.018Z,90.41
2023-02-11T19:22:24.231Z,90.51
2023-02-11T19:27:26.045Z,90.75
2023-02-11T19:32:28.235Z,91.78
2023-02-11T19:37:30.210Z,91.70
2023-02-11T19:42:31.923Z,90.83
2023-02-11T19:47:34.500Z,90.77
2023-02-11T19:52:40.278Z,90.26
2023-02-11T19:57:43.361Z,90.04
2023-02-11T20:02:47.226Z,89.72
2023-02-11T20:07:48.968Z,89.56
2023-02-11T20:12:53.684Z,89.24
2023-02-11T20:17:55.453Z,89.66
2023-02-11T20:22:58.637Z,89.80
2023-02-11T20:28:00.324Z,89.71
2023-02-11T20:33:02.059Z,89.25
2023-02-11T20:38:03.759Z,89.44
2023-02-11T20:43:08.705Z,89.38
2023-02-11T20:48:11.396Z,88.92
2023-02-11T20:53:13.025Z,88.83
2023-02-11T20:58:14.630Z,89.28
2023-02-11T21:03:16.322Z,89.23
2023-02-11T21:08:17.998Z,90.17
2023-02-11T21:13:19.652Z,89.64
2023-02-11T21:18:22.964Z,89.47
2023-02-11T21:23:25.006Z,90.03
2023-02-11T21:28:26.740Z,90.22
2023-02-11T21:33:29.219Z,90.43
2023-02-11T21:38:31.072Z,90.03
2023-02-11T21:43:33.817Z,89.77
2023-02-11T21:48:35.839Z,89.68
2023-02-11T21:53:38.578Z,89.63
2023-02-11T21:58:40.348Z,90.16
